createdAt,value
2022-09-12T00:03:01.908Z,50.5
2022-09-12T00:13:01.606Z,52
2022-09-12T00:23:01.701Z,52
2022-09-12T00:33:01.581Z,50.5
2022-09-12T00:43:01.703Z,50.5
2022-09-12T00:53:01.784Z,47
2022-09-12T01:03:01.705Z,46.5
2022-09-12T01:13:01.780Z,47
2022-09-12T01:23:01.693Z,46.5
2022-09-12T01:33:01.763Z,46.5
2022-09-12T01:43:01.696Z,46.5
2022-09-12T01:53:01.766Z,46.5
2022-09-12T02:03:01.893Z,46.5
2022-09-12T02:13:01.762Z,46.5
2022-09-12T02:23:01.882Z,46.5
2022-09-12T02:33:01.758Z,46.5
2022-09-12T02:43:01.867Z,47.5
2022-09-12T02:53:01.746Z,48
2022-09-12T03:03:01.870Z,46.5
2022-09-12T03:13:01.733Z,46.5
2022-09-12T03:23:01.873Z,46.5
2022-09-12T03:33:01.946Z,46.5
2022-09-12T03:43:01.869Z,46.5
2022-09-12T03:53:01.936Z,46.5
2022-09-12T04:03:01.857Z,46.5
2022-09-12T04:13:01.938Z,46.5
2022-09-12T04:23:01.847Z,46.5
2022-09-12T04:33:04.968Z,46.5
2022-09-12T04:43:02.059Z,46.5
2022-09-12T04:53:01.921Z,46.5
2022-09-12T05:03:02.041Z,46.5
2022-09-12T05:13:01.923Z,46.5
2022-09-12T05:23:02.047Z,46.5
2022-09-12T05:33:01.904Z,46.5
2022-09-12T05:43:02.037Z,46.5
2022-09-12T05:53:01.914Z,46.5
2022-09-12T06:03:02.038Z,46.5
2022-09-12T06:13:02.104Z,46.5
2022-09-12T06:23:02.030Z,46.5
2022-09-12T06:33:02.098Z,46.5
2022-09-12T06:43:02.017Z,46.5
2022-09-12T06:53:02.103Z,46.5
2022-09-12T07:03:02.016Z,46.5
2022-09-12T07:13:02.099Z,46.5
2022-09-12T07:23:02.013Z,46.5
2022-09-12T07:33:02.085Z,46
2022-09-12T07:43:02.214Z,45
2022-09-12T07:53:02.096Z,44.5
2022-09-12T08:03:02.226Z,44.5
2022-09-12T08:13:02.090Z,45
2022-09-12T08:23:02.213Z,44.5
2022-09-12T08:33:02.098Z,44.5
2022-09-12T08:43:02.238Z,44.5
2022-09-12T08:53:02.097Z,44.5
2022-09-12T09:03:02.287Z,44.5
2022-09-12T09:13:02.176Z,44.5
2022-09-12T09:23:02.290Z,44.5
2022-09-12T09:33:02.332Z,44.5
2022-09-12T09:43:02.278Z,44.5
2022-09-12T09:53:02.157Z,42.5
2022-09-12T10:03:02.282Z,42.5
2022-09-12T10:13:02.356Z,40.5
2022-09-12T10:23:02.275Z,42
2022-09-12T10:33:02.334Z,42
2022-09-12T10:43:02.275Z,42
2022-09-12T10:53:02.353Z,42
2022-09-12T11:03:02.260Z,42
2022-09-12T11:13:02.328Z,42
2022-09-12T11:23:02.268Z,42.5
2022-09-12T11:33:02.329Z,40.5
2022-09-12T11:43:02.467Z,43
2022-09-12T11:53:02.387Z,43
2022-09-12T12:03:02.479Z,43.5
2022-09-12T12:13:02.329Z,43
2022-09-12T12:23:02.437Z,44
2022-09-12T12:33:02.333Z,44
2022-09-12T12:43:02.447Z,44
2022-09-12T12:53:02.527Z,44
2022-09-12T13:03:02.430Z,44
2022-09-12T13:13:02.560Z,44
2022-09-12T13:23:02.665Z,46
2022-09-12T13:33:02.565Z,46
2022-09-12T13:43:02.426Z,46
2022-09-12T13:53:02.623Z,46
2022-09-12T14:03:02.437Z,46
2022-09-12T14:13:02.496Z,46
2022-09-12T14:23:02.731Z,46
2022-09-12T14:33:02.489Z,46
2022-09-12T14:43:02.609Z,46
2022-09-12T14:53:02.497Z,46
2022-09-12T15:03:02.627Z,46
2022-09-12T15:13:02.516Z,46
2022-09-12T15:23:02.735Z,46
2022-09-12T15:33:02.497Z,46
2022-09-12T15:43:02.744Z,46
2022-09-12T15:53:02.582Z,46
2022-09-12T16:03:02.682Z,48
2022-09-12T16:13:02.717Z,48
2022-09-12T16:23:02.651Z,48
2022-09-12T16:33:02.935Z,48
2022-09-12T16:43:02.853Z,48
2022-09-12T16:53:03.002Z,48
2022-09-12T17:03:02.875Z,48
2022-09-12T17:13:02.717Z,48
2022-09-12T17:23:05.425Z,48
2022-09-12T17:33:02.821Z,47
2022-09-12T17:43:02.897Z,48
2022-09-12T17:53:02.706Z,48
2022-09-12T18:03:02.863Z,48
2022-09-12T18:13:02.724Z,48
2022-09-12T18:23:02.871Z,48
2022-09-12T18:33:02.842Z,48
2022-09-12T18:43:02.750Z,48
2022-09-12T18:53:02.838Z,48
2022-09-12T19:03:02.753Z,48
2022-09-12T19:13:02.827Z,48
2022-09-12T19:23:02.834Z,48
2022-09-12T19:33:02.828Z,48
2022-09-12T19:43:02.950Z,48
2022-09-12T19:53:02.822Z,49
2022-09-12T20:03:03.087Z,50
2022-09-12T20:13:02.816Z,50
2022-09-12T20:23:02.952Z,50
2022-09-12T20:33:02.817Z,50
2022-09-12T20:43:03.051Z,50
2022-09-12T20:53:02.930Z,50
2022-09-12T21:03:03.153Z,50
2022-09-12T21:13:02.914Z,50
2022-09-12T21:23:03.169Z,50
2022-09-12T21:33:02.909Z,50
2022-09-12T21:43:03.299Z,50
2022-09-12T21:53:02.949Z,50
2022-09-12T22:03:03.023Z,50
2022-09-12T22:13:03.037Z,50
2022-09-12T22:23:03.176Z,50
2022-09-12T22:33:03.094Z,50
2022-09-12T22:43:03.016Z,50
2022-09-12T22:53:03.079Z,50
2022-09-12T23:03:03.092Z,50
2022-09-12T23:13:03.082Z,50
2022-09-12T23:23:03.094Z,50
2022-09-12T23:33:03.081Z,50
2022-09-12T23:43:03.091Z,50
2022-09-12T23:53:03.075Z,50
